createdAt,value
2023-01-13T00:01:40.693Z,82.75
2023-01-13T00:04:12.226Z,82.82
2023-01-13T00:06:41.036Z,82.94
2023-01-13T00:09:10.083Z,83.09
2023-01-13T00:11:38.925Z,82.89
2023-01-13T00:14:07.845Z,82.70
2023-01-13T00:16:36.513Z,83.04
2023-01-13T00:19:05.411Z,82.69
2023-01-13T00:21:34.264Z,83.39
2023-01-13T00:24:03.269Z,82.89
2023-01-13T00:26:34.523Z,82.45
2023-01-13T00:29:04.356Z,83.14
2023-01-13T00:31:33.179Z,82.95
2023-01-13T00:34:02.782Z,82.60
2023-01-13T00:36:32.745Z,83.01
2023-01-13T00:39:01.562Z,82.23
2023-01-13T00:41:50.292Z,82.86
2023-01-13T00:44:19.088Z,82.58
2023-01-13T00:46:47.916Z,83.02
2023-01-13T00:49:16.693Z,82.50
2023-01-13T00:51:45.733Z,82.90
2023-01-13T00:54:14.372Z,82.21
2023-01-13T00:56:43.476Z,82.97
2023-01-13T00:59:14.160Z,82.33
2023-01-13T01:01:43.250Z,82.96
2023-01-13T01:04:12.907Z,82.94
2023-01-13T01:06:41.735Z,82.70
2023-01-13T01:09:16.241Z,83.44
2023-01-13T01:11:45.587Z,83.29
2023-01-13T01:14:16.907Z,82.84
2023-01-13T01:16:45.548Z,82.81
2023-01-13T01:19:14.479Z,83.44
2023-01-13T01:21:43.190Z,82.48
2023-01-13T01:24:12.085Z,83.11
2023-01-13T01:26:42.522Z,83.01
2023-01-13T01:29:16.043Z,83.25
2023-01-13T01:31:44.963Z,82.83
2023-01-13T01:34:13.908Z,83.05
2023-01-13T01:36:42.882Z,83.16
2023-01-13T01:39:12.425Z,83.24
2023-01-13T01:42:01.565Z,83.19
2023-01-13T01:44:59.503Z,83.62
2023-01-13T01:47:31.697Z,82.88
2023-01-13T01:50:02.993Z,83.19
2023-01-13T01:52:37.378Z,82.77
2023-01-13T01:55:19.055Z,82.45
2023-01-13T01:57:55.631Z,82.74
2023-01-13T02:00:24.928Z,83.52
2023-01-13T02:02:54.411Z,82.36
2023-01-13T02:05:23.951Z,82.32
2023-01-13T02:07:55.928Z,82.63
2023-01-13T02:10:28.351Z,83.08
2023-01-13T02:13:04.604Z,83.32
2023-01-13T02:16:02.438Z,83.01
2023-01-13T02:18:41.870Z,83.00
2023-01-13T02:21:49.544Z,83.12
2023-01-13T02:24:42.628Z,82.60
2023-01-13T02:27:32.474Z,83.58
2023-01-13T02:30:44.927Z,82.60
2023-01-13T02:33:50.443Z,82.89
2023-01-13T02:36:30.727Z,83.11
2023-01-13T02:39:03.947Z,83.17
2023-01-13T02:42:00.931Z,83.26
2023-01-13T02:44:34.165Z,83.04
2023-01-13T02:47:02.863Z,83.01
2023-01-13T02:49:40.642Z,82.55
2023-01-13T02:52:18.723Z,83.03
2023-01-13T02:54:55.807Z,82.44
2023-01-13T02:57:28.353Z,82.25
2023-01-13T02:59:57.748Z,82.91
2023-01-13T03:02:30.181Z,82.66
2023-01-13T03:05:00.977Z,83.01
2023-01-13T03:07:57.601Z,82.89
2023-01-13T03:10:38.757Z,82.99
2023-01-13T03:13:20.296Z,82.78
2023-01-13T03:16:19.079Z,82.85
2023-01-13T03:19:17.002Z,82.78
2023-01-13T03:21:52.673Z,82.66
2023-01-13T03:24:37.284Z,82.69
2023-01-13T03:27:09.063Z,82.57
2023-01-13T03:29:42.425Z,82.55
2023-01-13T03:32:41.716Z,82.77
2023-01-13T03:35:32.063Z,82.67
2023-01-13T03:38:07.577Z,82.39
2023-01-13T03:41:00.095Z,82.62
2023-01-13T03:44:01.645Z,82.74
2023-01-13T03:46:40.777Z,82.08
2023-01-13T03:49:13.332Z,82.63
2023-01-13T03:51:48.545Z,82.40
2023-01-13T03:54:20.389Z,82.33
2023-01-13T03:56:55.764Z,83.01
2023-01-13T03:59:32.315Z,82.35
2023-01-13T04:02:10.273Z,82.75
2023-01-13T04:04:58.910Z,82.35
2023-01-13T04:07:46.066Z,82.28
2023-01-13T04:10:19.429Z,82.06
2023-01-13T04:13:10.131Z,82.80
2023-01-13T04:15:41.850Z,82.81
2023-01-13T04:18:18.319Z,81.71
2023-01-13T04:20:49.584Z,82.06
2023-01-13T04:23:20.017Z,81.70
2023-01-13T04:25:49.513Z,82.07
2023-01-13T04:28:19.106Z,82.45
2023-01-13T04:30:48.979Z,82.15
2023-01-13T04:33:20.029Z,82.58
2023-01-13T04:35:49.425Z,81.71
2023-01-13T04:38:20.584Z,81.64
2023-01-13T04:40:49.363Z,81.47
2023-01-13T04:43:18.543Z,82.04
2023-01-13T04:45:47.163Z,80.97
2023-01-13T04:48:15.889Z,81.98
2023-01-13T04:50:44.625Z,81.07
2023-01-13T04:53:13.386Z,81.13
2023-01-13T04:55:42.223Z,81.36
2023-01-13T04:58:12.163Z,80.34
2023-01-13T05:00:40.925Z,80.64
2023-01-13T05:03:12.090Z,80.11
2023-01-13T05:05:40.863Z,80.92
2023-01-13T05:08:09.855Z,80.00
2023-01-13T05:10:38.665Z,80.27
2023-01-13T05:13:25.543Z,79.93
2023-01-13T05:16:12.407Z,80.62
2023-01-13T05:18:41.327Z,79.75
2023-01-13T05:21:29.783Z,80.44
2023-01-13T05:24:19.028Z,79.84
2023-01-13T05:26:47.685Z,80.25
2023-01-13T05:29:16.327Z,79.98
2023-01-13T05:31:45.043Z,78.91
2023-01-13T05:34:13.796Z,78.80
2023-01-13T05:36:42.557Z,78.46
2023-01-13T05:39:11.103Z,79.32
2023-01-13T05:41:58.223Z,79.61
2023-01-13T05:44:27.058Z,78.66
2023-01-13T05:46:55.984Z,79.25
2023-01-13T05:49:24.703Z,79.41
2023-01-13T05:51:53.483Z,78.68
2023-01-13T05:54:21.977Z,79.62
2023-01-13T05:56:50.588Z,78.07
2023-01-13T05:59:19.349Z,77.25
2023-01-13T06:01:47.890Z,77.59
2023-01-13T06:04:16.539Z,77.38
2023-01-13T06:06:46.087Z,77.62
2023-01-13T06:09:14.853Z,77.25
2023-01-13T06:11:44.073Z,77.18
2023-01-13T06:14:12.576Z,77.44
2023-01-13T06:16:41.232Z,77.17
2023-01-13T06:19:13.719Z,76.79
2023-01-13T06:21:42.946Z,76.74
2023-01-13T06:24:11.693Z,76.24
2023-01-13T06:26:41.460Z,76.98
2023-01-13T06:29:13.503Z,76.41
2023-01-13T06:31:42.274Z,76.96
2023-01-13T06:34:14.117Z,75.51
2023-01-13T06:36:50.515Z,76.00
2023-01-13T06:39:23.411Z,76.30
2023-01-13T06:42:13.046Z,75.63
2023-01-13T06:44:41.562Z,75.78
2023-01-13T06:47:10.445Z,75.90
2023-01-13T06:49:38.951Z,76.11
2023-01-13T06:52:07.821Z,75.36
2023-01-13T06:54:36.570Z,75.37
2023-01-13T06:57:05.416Z,75.21
2023-01-13T06:59:37.021Z,75.42
2023-01-13T07:02:05.508Z,74.37
2023-01-13T07:04:34.401Z,75.02
2023-01-13T07:07:05.579Z,74.21
2023-01-13T07:09:34.394Z,75.52
2023-01-13T07:12:02.827Z,74.65
2023-01-13T07:14:49.963Z,74.92
2023-01-13T07:17:25.932Z,74.88
2023-01-13T07:19:54.461Z,74.25
2023-01-13T07:22:23.128Z,74.08
2023-01-13T07:24:55.065Z,74.49
2023-01-13T07:27:23.703Z,74.32
2023-01-13T07:29:52.275Z,75.01
2023-01-13T07:32:21.010Z,74.91
2023-01-13T07:34:50.086Z,74.33
2023-01-13T07:37:18.674Z,73.89
2023-01-13T07:39:47.164Z,73.88
2023-01-13T07:42:34.339Z,74.47
2023-01-13T07:45:03.924Z,73.12
2023-01-13T07:47:32.628Z,73.97
2023-01-13T07:50:01.170Z,73.85
2023-01-13T07:52:32.384Z,74.47
2023-01-13T07:55:01.239Z,73.89
2023-01-13T07:57:29.931Z,74.21
2023-01-13T07:59:58.452Z,74.21
2023-01-13T08:02:30.537Z,74.05
2023-01-13T08:05:04.015Z,74.38
2023-01-13T08:07:32.900Z,74.43
2023-01-13T08:10:02.267Z,73.36
2023-01-13T08:12:51.940Z,74.13
2023-01-13T08:15:36.221Z,74.60
2023-01-13T08:18:13.264Z,74.33
2023-01-13T08:21:04.286Z,73.95
2023-01-13T08:23:34.132Z,74.49
2023-01-13T08:26:05.052Z,73.84
2023-01-13T08:28:33.857Z,73.27
2023-01-13T08:31:04.883Z,74.31
2023-01-13T08:33:34.143Z,73.44
2023-01-13T08:36:07.545Z,72.75
2023-01-13T08:38:37.458Z,73.49
2023-01-13T08:41:13.743Z,73.60
2023-01-13T08:43:42.982Z,73.58
2023-01-13T08:46:12.312Z,72.67
2023-01-13T08:48:41.058Z,73.53
2023-01-13T08:51:12.283Z,73.84
2023-01-13T08:53:40.841Z,72.68
2023-01-13T08:56:12.548Z,73.33
2023-01-13T08:58:41.756Z,74.33
2023-01-13T09:01:16.142Z,73.93
2023-01-13T09:03:44.804Z,73.13
2023-01-13T09:06:13.327Z,73.06
2023-01-13T09:08:45.002Z,73.71
2023-01-13T09:11:48.462Z,73.45
2023-01-13T09:14:25.666Z,73.99
2023-01-13T09:16:54.290Z,74.01
2023-01-13T09:19:23.202Z,73.87
2023-01-13T09:21:53.458Z,74.29
2023-01-13T09:24:22.546Z,73.70
2023-01-13T09:26:51.522Z,74.71
2023-01-13T09:29:20.105Z,74.48
2023-01-13T09:31:48.972Z,74.40
2023-01-13T09:34:39.411Z,75.20
2023-01-13T09:37:09.073Z,73.96
2023-01-13T09:39:38.471Z,74.96
2023-01-13T09:43:01.024Z,74.90
2023-01-13T09:45:33.755Z,74.78
2023-01-13T09:48:24.051Z,74.73
2023-01-13T09:51:04.149Z,75.24
2023-01-13T09:53:41.150Z,74.89
2023-01-13T09:56:12.219Z,75.81
2023-01-13T09:58:40.989Z,75.44
2023-01-13T10:01:16.601Z,75.42
2023-01-13T10:03:46.142Z,75.50
2023-01-13T10:06:24.867Z,76.37
2023-01-13T10:08:54.220Z,76.23
2023-01-13T10:11:44.395Z,75.79
2023-01-13T10:14:18.846Z,75.90
2023-01-13T10:16:47.125Z,76.56
2023-01-13T10:19:50.992Z,76.62
2023-01-13T10:22:48.409Z,76.13
2023-01-13T10:25:26.649Z,76.48
2023-01-13T10:28:04.952Z,76.44
2023-01-13T10:30:40.843Z,77.03
2023-01-13T10:33:26.950Z,76.56
2023-01-13T10:36:13.634Z,77.04
2023-01-13T10:38:48.260Z,76.86
2023-01-13T10:41:17.235Z,77.27
2023-01-13T10:43:59.153Z,77.05
2023-01-13T10:46:28.994Z,76.68
2023-01-13T10:49:00.476Z,77.15
2023-01-13T10:51:31.894Z,77.59
2023-01-13T10:54:13.880Z,77.55
2023-01-13T10:56:45.804Z,77.30
2023-01-13T10:59:29.534Z,77.30
2023-01-13T11:02:19.845Z,77.67
2023-01-13T11:04:56.569Z,77.25
2023-01-13T11:07:32.689Z,77.63
2023-01-13T11:10:07.815Z,78.20
2023-01-13T11:12:48.872Z,77.55
2023-01-13T11:15:23.177Z,77.77
2023-01-13T11:18:10.443Z,77.57
2023-01-13T11:20:44.047Z,78.53
2023-01-13T11:23:35.360Z,78.17
2023-01-13T11:26:13.463Z,78.56
2023-01-13T11:29:18.154Z,78.79
2023-01-13T11:31:53.005Z,78.46
2023-01-13T11:34:42.905Z,78.83
2023-01-13T11:37:21.352Z,78.98
2023-01-13T11:40:08.371Z,79.49
2023-01-13T11:42:43.112Z,79.06
2023-01-13T11:45:42.705Z,79.15
2023-01-13T11:48:21.980Z,78.53
2023-01-13T11:50:57.652Z,79.05
2023-01-13T11:53:45.428Z,78.70
2023-01-13T11:56:22.143Z,79.46
2023-01-13T11:59:22.606Z,79.36
2023-01-13T12:02:08.909Z,78.65
2023-01-13T12:04:59.188Z,79.12
2023-01-13T12:07:57.003Z,78.45
2023-01-13T12:10:49.944Z,79.55
2023-01-13T12:13:29.928Z,79.13
2023-01-13T12:16:16.828Z,79.32
2023-01-13T12:19:13.183Z,79.22
2023-01-13T12:22:08.503Z,79.38
2023-01-13T12:24:49.183Z,79.66
2023-01-13T12:27:47.471Z,79.72
2023-01-13T12:30:28.104Z,79.33
2023-01-13T12:33:08.333Z,78.95
2023-01-13T12:35:52.923Z,78.98
2023-01-13T12:38:38.390Z,79.04
2023-01-13T12:42:08.425Z,79.12
2023-01-13T12:44:37.876Z,80.18
2023-01-13T12:47:39.629Z,79.42
2023-01-13T12:50:23.442Z,79.67
2023-01-13T12:52:54.654Z,79.30
2023-01-13T12:55:37.000Z,79.53
2023-01-13T12:58:06.086Z,78.98
2023-01-13T13:00:41.718Z,79.60
2023-01-13T13:03:15.209Z,79.76
2023-01-13T13:05:58.057Z,79.34
2023-01-13T13:08:48.282Z,79.28
2023-01-13T13:11:40.214Z,79.29
2023-01-13T13:14:15.249Z,79.73
2023-01-13T13:16:52.390Z,80.56
2023-01-13T13:19:23.360Z,80.98
2023-01-13T13:22:13.182Z,80.41
2023-01-13T13:24:43.997Z,79.87
2023-01-13T13:27:18.802Z,78.71
2023-01-13T13:29:53.580Z,79.71
2023-01-13T13:33:01.054Z,79.23
2023-01-13T13:35:55.959Z,79.59
2023-01-13T13:39:02.410Z,78.71
2023-01-13T13:41:50.055Z,79.13
2023-01-13T13:45:02.215Z,79.66
2023-01-13T13:47:38.875Z,79.10
2023-01-13T13:50:14.738Z,79.57
2023-01-13T13:53:06.981Z,79.20
2023-01-13T13:55:38.005Z,79.18
2023-01-13T13:58:14.979Z,80.38
2023-01-13T14:00:49.290Z,79.51
2023-01-13T14:03:33.821Z,80.37
2023-01-13T14:06:10.759Z,79.08
2023-01-13T14:08:46.826Z,79.06
2023-01-13T14:11:29.633Z,80.12
2023-01-13T14:14:07.818Z,80.28
2023-01-13T14:16:39.351Z,79.80
2023-01-13T14:19:46.298Z,79.95
2023-01-13T14:22:17.712Z,79.40
2023-01-13T14:24:50.015Z,79.87
2023-01-13T14:27:20.648Z,79.58
2023-01-13T14:29:50.033Z,79.48
2023-01-13T14:32:32.608Z,80.08
2023-01-13T14:35:02.750Z,79.39
2023-01-13T14:37:35.915Z,80.00
2023-01-13T14:40:06.200Z,79.68
2023-01-13T14:42:36.147Z,79.68
2023-01-13T14:45:05.415Z,80.20
2023-01-13T14:47:34.676Z,79.65
2023-01-13T14:50:22.907Z,79.16
2023-01-13T14:52:56.789Z,79.68
2023-01-13T14:55:29.716Z,79.58
2023-01-13T14:58:24.144Z,79.55
2023-01-13T15:01:13.113Z,80.11
2023-01-13T15:03:42.904Z,79.70
2023-01-13T15:06:26.562Z,79.99
2023-01-13T15:08:55.601Z,79.52
2023-01-13T15:11:29.119Z,79.40
2023-01-13T15:14:05.021Z,79.86
2023-01-13T15:16:35.010Z,80.24
2023-01-13T15:19:05.047Z,80.08
2023-01-13T15:21:35.352Z,79.58
2023-01-13T15:24:05.190Z,79.99
2023-01-13T15:26:35.768Z,79.90
2023-01-13T15:29:05.865Z,79.80
2023-01-13T15:31:34.633Z,80.18
2023-01-13T15:34:03.344Z,80.57
2023-01-13T15:36:34.818Z,79.81
2023-01-13T15:39:04.523Z,80.14
2023-01-13T15:41:51.299Z,80.34
2023-01-13T15:44:38.501Z,80.32
2023-01-13T15:47:14.591Z,80.40
2023-01-13T15:49:47.764Z,80.30
2023-01-13T15:52:28.149Z,80.90
2023-01-13T15:54:56.579Z,80.87
2023-01-13T15:57:29.609Z,80.45
2023-01-13T16:00:10.259Z,80.40
2023-01-13T16:02:39.282Z,80.97
2023-01-13T16:05:10.706Z,80.90
2023-01-13T16:07:39.805Z,81.11
2023-01-13T16:10:17.810Z,80.93
2023-01-13T16:12:49.341Z,80.87
2023-01-13T16:15:23.042Z,81.06
2023-01-13T16:18:00.453Z,80.52
2023-01-13T16:20:29.346Z,80.65
2023-01-13T16:22:57.934Z,81.10
2023-01-13T16:25:28.313Z,80.61
2023-01-13T16:27:56.995Z,81.44
2023-01-13T16:30:38.362Z,80.83
2023-01-13T16:33:08.984Z,81.17
2023-01-13T16:35:43.852Z,81.30
2023-01-13T16:38:26.848Z,81.69
2023-01-13T16:40:58.148Z,82.19
2023-01-13T16:43:28.668Z,80.91
2023-01-13T16:45:57.666Z,81.18
2023-01-13T16:48:26.480Z,81.26
2023-01-13T16:50:55.340Z,80.96
2023-01-13T16:53:24.515Z,80.80
2023-01-13T16:55:53.640Z,81.85
2023-01-13T16:58:22.634Z,81.88
2023-01-13T17:00:53.040Z,81.63
2023-01-13T17:03:22.047Z,81.80
2023-01-13T17:05:50.771Z,81.04
2023-01-13T17:08:19.889Z,81.99
2023-01-13T17:10:48.934Z,81.91
2023-01-13T17:13:17.833Z,81.73
2023-01-13T17:15:47.556Z,80.92
2023-01-13T17:18:16.510Z,82.43
2023-01-13T17:20:45.816Z,81.57
2023-01-13T17:23:15.677Z,81.49
2023-01-13T17:25:44.648Z,82.56
2023-01-13T17:28:13.377Z,82.34
2023-01-13T17:30:45.265Z,81.80
2023-01-13T17:33:16.804Z,81.50
2023-01-13T17:35:46.800Z,80.93
2023-01-13T17:38:15.623Z,82.16
2023-01-13T17:40:46.992Z,82.22
2023-01-13T17:43:15.307Z,81.29
2023-01-13T17:45:46.716Z,81.13
2023-01-13T17:48:15.346Z,81.78
2023-01-13T17:50:50.723Z,81.30
2023-01-13T17:53:21.137Z,81.27
2023-01-13T17:55:56.773Z,82.29
2023-01-13T17:58:28.039Z,82.06
2023-01-13T18:00:56.747Z,82.15
2023-01-13T18:03:25.489Z,81.48
2023-01-13T18:05:54.071Z,81.99
2023-01-13T18:08:24.362Z,82.34
2023-01-13T18:10:53.313Z,81.44
2023-01-13T18:13:21.834Z,81.54
2023-01-13T18:15:50.366Z,81.62
2023-01-13T18:18:18.985Z,81.80
2023-01-13T18:21:06.327Z,81.28
2023-01-13T18:23:53.148Z,81.61
2023-01-13T18:26:39.929Z,81.73
2023-01-13T18:29:08.807Z,81.97
2023-01-13T18:31:37.546Z,81.36
2023-01-13T18:34:08.488Z,80.93
2023-01-13T18:36:37.805Z,81.83
2023-01-13T18:39:07.042Z,81.56
2023-01-13T18:41:54.849Z,81.52
2023-01-13T18:44:23.649Z,81.09
2023-01-13T18:46:52.648Z,81.41
2023-01-13T18:49:21.407Z,80.61
2023-01-13T18:51:50.712Z,81.39
2023-01-13T18:54:20.509Z,80.88
2023-01-13T18:56:50.235Z,81.59
2023-01-13T18:59:19.304Z,81.53
2023-01-13T19:01:48.205Z,80.79
2023-01-13T19:04:18.312Z,80.32
2023-01-13T19:06:50.387Z,80.84
2023-01-13T19:09:21.794Z,81.34
2023-01-13T19:11:51.174Z,81.58
2023-01-13T19:14:38.020Z,81.61
2023-01-13T19:17:13.383Z,80.76
2023-01-13T19:19:46.930Z,81.26
2023-01-13T19:22:23.575Z,80.50
2023-01-13T19:24:52.457Z,81.78
2023-01-13T19:27:22.153Z,81.27
2023-01-13T19:29:52.956Z,81.82
2023-01-13T19:32:22.644Z,80.69
2023-01-13T19:34:51.917Z,80.66
2023-01-13T19:37:21.327Z,80.54
2023-01-13T19:39:50.887Z,81.13
2023-01-13T19:42:37.911Z,81.41
2023-01-13T19:45:25.719Z,81.72
2023-01-13T19:47:55.848Z,82.03
2023-01-13T19:50:25.279Z,81.29
2023-01-13T19:52:54.429Z,80.74
2023-01-13T19:55:23.726Z,81.14
2023-01-13T19:57:52.662Z,81.77
2023-01-13T20:00:22.630Z,80.84
2023-01-13T20:02:53.778Z,81.13
2023-01-13T20:05:26.471Z,81.18
2023-01-13T20:07:55.542Z,80.47
2023-01-13T20:10:25.631Z,80.42
2023-01-13T20:12:54.524Z,81.13
2023-01-13T20:15:23.452Z,81.62
2023-01-13T20:17:52.861Z,81.19
2023-01-13T20:20:22.119Z,82.27
2023-01-13T20:22:51.151Z,81.03
2023-01-13T20:25:21.140Z,81.44
2023-01-13T20:27:50.179Z,81.92
2023-01-13T20:30:18.967Z,81.38
2023-01-13T20:32:47.687Z,81.71
2023-01-13T20:35:16.670Z,81.30
2023-01-13T20:37:45.420Z,80.79
2023-01-13T20:40:17.011Z,80.99
2023-01-13T20:42:45.994Z,82.30
2023-01-13T20:45:22.481Z,81.42
2023-01-13T20:47:51.330Z,81.28
2023-01-13T20:50:20.370Z,80.77
2023-01-13T20:52:49.574Z,81.68
2023-01-13T20:55:18.631Z,81.46
2023-01-13T20:57:49.674Z,82.33
2023-01-13T21:00:18.979Z,81.29
2023-01-13T21:02:47.869Z,81.77
2023-01-13T21:05:16.921Z,80.93
2023-01-13T21:07:46.054Z,81.40
2023-01-13T21:10:14.728Z,81.64
2023-01-13T21:13:01.877Z,81.21
2023-01-13T21:15:30.417Z,81.07
2023-01-13T21:18:17.886Z,81.25
2023-01-13T21:20:46.774Z,81.54
2023-01-13T21:23:15.845Z,82.20
2023-01-13T21:25:44.713Z,81.57
2023-01-13T21:28:14.617Z,81.01
2023-01-13T21:30:44.712Z,82.03
2023-01-13T21:33:15.171Z,82.28
2023-01-13T21:35:43.938Z,81.34
2023-01-13T21:38:13.151Z,81.64
2023-01-13T21:40:41.834Z,82.18
2023-01-13T21:43:32.024Z,82.06
2023-01-13T21:46:19.893Z,81.44
2023-01-13T21:48:48.764Z,82.06
2023-01-13T21:51:17.674Z,81.40
2023-01-13T21:53:46.295Z,81.25
2023-01-13T21:56:15.171Z,81.24
2023-01-13T21:58:43.935Z,82.40
2023-01-13T22:01:12.985Z,82.45
2023-01-13T22:04:00.539Z,82.79
2023-01-13T22:06:29.902Z,81.38
2023-01-13T22:09:02.082Z,82.15
2023-01-13T22:11:31.313Z,82.67
2023-01-13T22:14:12.143Z,82.12
2023-01-13T22:16:50.430Z,82.54
2023-01-13T22:19:19.393Z,82.07
2023-01-13T22:21:48.304Z,81.45
2023-01-13T22:24:17.253Z,82.84
2023-01-13T22:26:46.044Z,82.03
2023-01-13T22:29:14.975Z,81.66
2023-01-13T22:31:44.068Z,82.76
2023-01-13T22:34:13.845Z,82.36
2023-01-13T22:36:42.696Z,81.79
2023-01-13T22:39:14.910Z,82.72
2023-01-13T22:41:43.547Z,82.84
2023-01-13T22:44:12.381Z,82.77
2023-01-13T22:46:41.351Z,82.56
2023-01-13T22:49:11.768Z,82.23
2023-01-13T22:51:40.705Z,83.45
2023-01-13T22:54:10.450Z,82.64
2023-01-13T22:56:39.831Z,83.19
2023-01-13T22:59:10.399Z,81.95
2023-01-13T23:01:39.488Z,82.78
2023-01-13T23:04:08.687Z,82.50
2023-01-13T23:06:37.460Z,82.61
2023-01-13T23:09:06.921Z,82.40
2023-01-13T23:11:36.297Z,83.15
2023-01-13T23:14:08.280Z,83.33
2023-01-13T23:16:40.505Z,82.72
2023-01-13T23:19:11.513Z,83.28
2023-01-13T23:21:40.538Z,83.55
2023-01-13T23:24:09.368Z,82.93
2023-01-13T23:26:38.373Z,82.64
2023-01-13T23:29:09.809Z,83.09
2023-01-13T23:31:39.103Z,83.10
2023-01-13T23:34:08.058Z,83.09
2023-01-13T23:36:41.714Z,82.82
2023-01-13T23:39:10.619Z,82.47
2023-01-13T23:41:39.328Z,82.89
2023-01-13T23:44:08.199Z,82.61
2023-01-13T23:46:37.044Z,83.21
2023-01-13T23:49:06.308Z,83.29
2023-01-13T23:51:35.455Z,82.38
2023-01-13T23:54:04.362Z,83.02
2023-01-13T23:56:33.714Z,82.50
2023-01-13T23:59:02.526Z,82.48
